PWSweather.com
Personal Weather Stations
Station Observations
SUBOTICARS
SuboticaYU

SuboticaYU

Lat: 46.1296717, Lon: 19.641551

Elevation: 361

Station Type: Nexus

http://sumeteo.info

Latest ConditionsUpdated 2:55:01 AM GMT+01:01 Thursday, Apr 26, 2018
Currently Today's Max Today's Min Today's Average
Temperature 52.5°F11.4°C 53.8°F12.1°C 52.2°F11.2°C 52.7°F11.5°C
Dew Point 46.9°F8.3°C 49.0°F9.4°C 46.2°F7.9°C 47.1°F8.4°C
Winds 1.2 mph W1.9 kmh W 1.2 mph W1.9 kmh W - 0.1 mph 0.2 kmh
Wind Gusts 2.3 mph3.7 kmh 2.3 mph3.7 kmh - -
Humidity 81% 86% 79% 81%
Pressure 29.55 in1000.7 mb 29.55 in1000.7 mb 29.53 in1000.0 mb -
Hour Temp Dew Point Humidity Winds Wind Gusts Pressure Precip Precip Rate Daily Precip Total
02:55 AM 52.5°F11.4°C 46.9°F8.3°C 81% 1.2 mph W1.9 kmh W 2.3 mph3.7 kmh 29.55 in1000.7 mb - 0.00 in0.0 mm 0.00 in0.0 mm
02:50 AM 52.3°F11.3°C 46.7°F8.2°C 81% Calm Calm -- 29.55 in1000.7 mb - 0.00 in0.0 mm 0.00 in0.0 mm
02:45 AM 52.2°F11.2°C 46.2°F7.9°C 80% Calm Calm 1.2 mph1.9 kmh 29.55 in1000.7 mb - 0.00 in0.0 mm 0.00 in0.0 mm
02:40 AM 52.2°F11.2°C 46.2°F7.9°C 80% Calm Calm -- 29.55 in1000.7 mb - 0.00 in0.0 mm 0.00 in0.0 mm
02:35 AM 52.4°F11.3°C 46.4°F8.0°C 80% Calm Calm -- 29.55 in1000.7 mb - 0.00 in0.0 mm 0.00 in0.0 mm
02:30 AM 52.7°F11.5°C 47.0°F8.3°C 81% Calm Calm -- 29.55 in1000.7 mb - 0.00 in0.0 mm 0.00 in0.0 mm
02:25 AM 52.5°F11.4°C 46.5°F8.1°C 80% Calm Calm -- 29.54 in1000.3 mb - 0.00 in0.0 mm 0.00 in0.0 mm
02:20 AM 52.5°F11.4°C 46.5°F8.1°C 80% Calm Calm -- 29.54 in1000.3 mb - 0.00 in0.0 mm 0.00 in0.0 mm
02:15 AM 52.7°F11.5°C 47.0°F8.3°C 81% Calm Calm -- 29.54 in1000.3 mb - 0.00 in0.0 mm 0.00 in0.0 mm
02:10 AM 52.5°F11.4°C 46.5°F8.1°C 80% Calm Calm 1.2 mph1.9 kmh 29.54 in1000.3 mb - 0.00 in0.0 mm 0.00 in0.0 mm
02:00 AM 52.5°F11.4°C 46.9°F8.3°C 81% Calm Calm 1.2 mph1.9 kmh 29.54 in1000.3 mb - 0.00 in0.0 mm 0.00 in0.0 mm
01:55 AM 52.7°F11.5°C 47.4°F8.6°C 82% Calm Calm -- 29.53 in1000.0 mb - 0.00 in0.0 mm 0.00 in0.0 mm
01:50 AM 52.7°F11.5°C 47.7°F8.7°C 83% 1.2 mph W1.9 kmh W 1.2 mph1.9 kmh 29.53 in1000.0 mb - 0.00 in0.0 mm 0.00 in0.0 mm
01:45 AM 52.7°F11.5°C 47.7°F8.7°C 83% Calm Calm 1.2 mph1.9 kmh 29.54 in1000.3 mb - 0.00 in0.0 mm 0.00 in0.0 mm
01:40 AM 52.5°F11.4°C 47.8°F8.8°C 84% Calm Calm -- 29.54 in1000.3 mb - 0.00 in0.0 mm 0.00 in0.0 mm
01:35 AM 52.3°F11.3°C 46.7°F8.2°C 81% Calm Calm -- 29.54 in1000.3 mb - 0.00 in0.0 mm 0.00 in0.0 mm
01:30 AM 52.3°F11.3°C 47.0°F8.3°C 82% Calm Calm -- 29.54 in1000.3 mb - 0.00 in0.0 mm 0.00 in0.0 mm
01:25 AM 52.2°F11.2°C 46.5°F8.1°C 81% Calm Calm 1.2 mph1.9 kmh 29.54 in1000.3 mb - 0.00 in0.0 mm 0.00 in0.0 mm
01:20 AM 52.3°F11.3°C 46.7°F8.2°C 81% Calm Calm -- 29.54 in1000.3 mb - 0.00 in0.0 mm 0.00 in0.0 mm
01:15 AM 52.5°F11.4°C 46.9°F8.3°C 81% Calm Calm -- 29.54 in1000.3 mb - 0.00 in0.0 mm 0.00 in0.0 mm
01:10 AM 52.6°F11.4°C 46.9°F8.3°C 81% Calm Calm -- 29.55 in1000.7 mb - 0.00 in0.0 mm 0.00 in0.0 mm
01:00 AM 52.7°F11.5°C 47.0°F8.3°C 81% Calm Calm -- 29.55 in1000.7 mb - 0.00 in0.0 mm 0.00 in0.0 mm
12:55 AM 53.1°F11.7°C 49.0°F9.4°C 86% Calm Calm 1.2 mph1.9 kmh 29.55 in1000.7 mb - 0.00 in0.0 mm 0.00 in0.0 mm
12:50 AM 53.1°F11.7°C 49.0°F9.4°C 86% 1.2 mph W1.9 kmh W 2.3 mph3.7 kmh 29.55 in1000.7 mb - 0.00 in0.0 mm 0.00 in0.0 mm
12:45 AM 52.9°F11.6°C 47.2°F8.4°C 81% Calm Calm -- 29.55 in1000.7 mb - 0.00 in0.0 mm 0.00 in0.0 mm
12:40 AM 52.9°F11.6°C 46.9°F8.3°C 80% Calm Calm -- 29.55 in1000.7 mb - 0.00 in0.0 mm 0.00 in0.0 mm
12:35 AM 52.9°F11.6°C 46.9°F8.3°C 80% Calm Calm -- 29.55 in1000.7 mb - 0.00 in0.0 mm 0.00 in0.0 mm
12:30 AM 53.1°F11.7°C 46.7°F8.2°C 79% Calm Calm -- 29.55 in1000.7 mb - 0.00 in0.0 mm 0.00 in0.0 mm
12:25 AM 53.2°F11.8°C 47.2°F8.4°C 80% Calm Calm -- 29.55 in1000.7 mb - 0.00 in0.0 mm 0.00 in0.0 mm
12:20 AM 53.2°F11.8°C 47.2°F8.4°C 80% Calm Calm -- 29.55 in1000.7 mb - 0.00 in0.0 mm 0.00 in0.0 mm
12:15 AM 53.2°F11.8°C 46.9°F8.3°C 79% Calm Calm -- 29.55 in1000.7 mb - 0.00 in0.0 mm 0.00 in0.0 mm
12:10 AM 53.4°F11.9°C 47.1°F8.4°C 79% Calm Calm -- 29.55 in1000.7 mb - 0.00 in0.0 mm 0.00 in0.0 mm
12:00 AM 53.8°F12.1°C 47.8°F8.8°C 80% Calm Calm -- 29.55 in1000.7 mb - 0.00 in0.0 mm 0.00 in0.0 mm